createdAt,value
2023-02-12T00:01:22.615Z,1.10
2023-02-12T00:03:49.992Z,1.10
2023-02-12T00:06:17.280Z,1.58
2023-02-12T00:08:44.330Z,1.52
2023-02-12T00:11:16.836Z,1.35
2023-02-12T00:13:44.129Z,1.02
2023-02-12T00:16:14.793Z,1.25
2023-02-12T00:18:42.485Z,1.23
2023-02-12T00:21:10.131Z,1.40
2023-02-12T00:23:39.139Z,1.45
2023-02-12T00:26:08.552Z,3.33
2023-02-12T00:28:35.848Z,1.80
2023-02-12T00:31:07.287Z,1.40
2023-02-12T00:33:34.905Z,1.48
2023-02-12T00:36:02.424Z,1.48
2023-02-12T00:38:29.506Z,1.50
2023-02-12T00:40:56.912Z,1.40
2023-02-12T00:43:23.815Z,1.23
2023-02-12T00:45:51.062Z,1.27
2023-02-12T00:48:18.224Z,1.30
2023-02-12T00:50:46.953Z,1.52
2023-02-12T00:53:14.312Z,1.42
2023-02-12T00:55:42.145Z,1.42
2023-02-12T00:58:09.743Z,1.20
2023-02-12T01:00:36.987Z,1.10
2023-02-12T01:03:04.603Z,1.73
2023-02-12T01:05:33.210Z,1.15
2023-02-12T01:08:00.708Z,1.30
2023-02-12T01:10:28.294Z,1.48
2023-02-12T01:12:55.843Z,1.40
2023-02-12T01:15:23.795Z,1.20
2023-02-12T01:17:54.372Z,1.15
2023-02-12T01:20:24.049Z,1.00
2023-02-12T01:22:51.268Z,1.23
2023-02-12T01:25:20.533Z,1.30
2023-02-12T01:27:47.955Z,1.30
2023-02-12T01:30:16.192Z,1.30
2023-02-12T01:32:44.094Z,1.30
2023-02-12T01:35:11.836Z,1.50
2023-02-12T01:37:41.101Z,1.20
2023-02-12T01:40:09.340Z,1.40
2023-02-12T01:42:36.247Z,0.90
2023-02-12T01:45:12.738Z,1.30
2023-02-12T01:47:41.575Z,1.10
2023-02-12T01:50:12.870Z,1.33
2023-02-12T01:52:46.610Z,1.08
2023-02-12T01:55:15.070Z,1.00
2023-02-12T01:57:45.804Z,1.20
2023-02-12T02:00:16.937Z,1.30
2023-02-12T02:02:48.091Z,1.10
2023-02-12T02:07:45.618Z,0.90
2023-02-12T02:10:12.951Z,1.13
2023-02-12T02:12:58.378Z,1.10
2023-02-12T02:15:30.521Z,1.05
2023-02-12T02:18:26.986Z,1.30
2023-02-12T02:21:22.271Z,1.00
2023-02-12T02:24:10.346Z,1.13
2023-02-12T02:27:10.481Z,1.20
2023-02-12T02:30:26.535Z,1.08
2023-02-12T02:33:13.778Z,1.00
2023-02-12T02:35:54.528Z,1.25
2023-02-12T02:38:35.742Z,1.10
2023-02-12T02:41:02.584Z,1.37
2023-02-12T02:43:35.796Z,0.88
2023-02-12T02:46:09.982Z,1.27
2023-02-12T02:48:41.893Z,1.00
2023-02-12T02:51:14.344Z,1.00
2023-02-12T02:53:51.561Z,0.82
2023-02-12T02:56:22.895Z,1.00
2023-02-12T02:59:01.518Z,1.23
2023-02-12T03:01:36.658Z,1.08
2023-02-12T03:04:08.172Z,0.93
2023-02-12T03:06:47.091Z,1.10
2023-02-12T03:09:20.552Z,1.10
2023-02-12T03:11:47.971Z,1.30
2023-02-12T03:14:23.430Z,1.00
2023-02-12T03:17:04.429Z,1.00
2023-02-12T03:19:44.325Z,1.10
2023-02-12T03:22:16.653Z,1.27
2023-02-12T03:25:01.902Z,1.00
2023-02-12T03:27:40.382Z,1.02
2023-02-12T03:30:08.917Z,1.02
2023-02-12T03:32:38.638Z,1.00
2023-02-12T03:35:10.367Z,0.82
2023-02-12T03:37:46.788Z,1.50
2023-02-12T03:40:53.735Z,1.30
2023-02-12T03:43:27.648Z,0.90
2023-02-12T03:46:27.080Z,1.00
2023-02-12T03:49:02.262Z,1.10
2023-02-12T03:51:36.830Z,0.90
2023-02-12T03:54:06.225Z,0.70
2023-02-12T03:56:40.976Z,1.00
2023-02-12T03:59:08.269Z,1.00
2023-02-12T04:01:36.067Z,0.95
2023-02-12T04:04:05.320Z,0.85
2023-02-12T04:06:32.752Z,1.00
2023-02-12T04:09:04.283Z,1.30
2023-02-12T04:11:40.530Z,1.00
2023-02-12T04:14:23.292Z,1.00
2023-02-12T04:17:14.923Z,1.00
2023-02-12T04:23:06.737Z,1.08
2023-02-12T04:25:51.855Z,0.98
2023-02-12T04:28:44.184Z,1.63
2023-02-12T04:31:29.103Z,1.00
2023-02-12T04:34:14.509Z,1.13
2023-02-12T04:36:58.005Z,1.10
2023-02-12T04:39:31.988Z,1.02
2023-02-12T04:42:00.988Z,1.30
2023-02-12T04:44:31.775Z,1.00
2023-02-12T04:46:58.771Z,1.08
2023-02-12T04:49:26.855Z,1.20
2023-02-12T04:51:54.197Z,1.15
2023-02-12T04:54:22.472Z,1.40
2023-02-12T04:56:50.120Z,1.23
2023-02-12T04:59:17.778Z,1.50
2023-02-12T05:01:45.715Z,1.20
2023-02-12T05:04:16.001Z,1.35
2023-02-12T05:06:43.889Z,1.50
2023-02-12T05:09:15.941Z,1.38
2023-02-12T05:11:43.431Z,1.15
2023-02-12T05:14:11.282Z,1.58
2023-02-12T05:16:38.626Z,1.35
2023-02-12T05:19:05.924Z,1.50
2023-02-12T05:21:32.945Z,1.48
2023-02-12T05:24:03.126Z,1.15
2023-02-12T05:26:30.427Z,1.50
2023-02-12T05:28:57.845Z,1.40
2023-02-12T05:31:25.052Z,1.60
2023-02-12T05:33:52.647Z,1.40
2023-02-12T05:36:24.007Z,1.55
2023-02-12T05:38:52.295Z,1.60
2023-02-12T05:41:23.322Z,2.00
2023-02-12T05:43:51.136Z,1.33
2023-02-12T05:46:19.808Z,1.35
2023-02-12T05:48:47.521Z,1.65
2023-02-12T05:51:17.199Z,1.75
2023-02-12T05:53:44.338Z,1.58
2023-02-12T05:56:11.465Z,1.80
2023-02-12T05:58:39.344Z,1.75
2023-02-12T06:01:14.374Z,1.92
2023-02-12T06:03:41.807Z,1.73
2023-02-12T06:06:09.232Z,1.80
2023-02-12T06:08:37.049Z,1.70
2023-02-12T06:11:07.113Z,1.77
2023-02-12T06:13:34.956Z,1.88
2023-02-12T06:16:02.321Z,2.03
2023-02-12T06:18:29.589Z,1.70
2023-02-12T06:20:57.036Z,1.92
2023-02-12T06:23:24.967Z,1.80
2023-02-12T06:25:57.283Z,2.10
2023-02-12T06:28:25.066Z,1.65
2023-02-12T06:30:52.436Z,1.60
2023-02-12T06:33:19.766Z,1.65
2023-02-12T06:35:46.785Z,1.77
2023-02-12T06:38:14.159Z,1.77
2023-02-12T06:40:41.488Z,1.50
2023-02-12T06:43:08.927Z,1.42
2023-02-12T06:45:35.857Z,1.85
2023-02-12T06:48:03.197Z,1.70
2023-02-12T06:50:30.745Z,1.60
2023-02-12T06:52:59.016Z,2.00
2023-02-12T06:55:26.080Z,2.15
2023-02-12T06:57:53.295Z,1.88
2023-02-12T07:00:20.885Z,2.08
2023-02-12T07:02:53.583Z,2.03
2023-02-12T07:05:20.730Z,1.70
2023-02-12T07:07:47.959Z,1.90
2023-02-12T07:10:14.905Z,1.95
2023-02-12T07:12:42.104Z,2.00
2023-02-12T07:15:09.556Z,2.05
2023-02-12T07:17:36.926Z,2.00
2023-02-12T07:20:05.288Z,2.03
2023-02-12T07:22:36.297Z,2.08
2023-02-12T07:25:03.209Z,2.00
2023-02-12T07:27:30.442Z,1.75
2023-02-12T07:29:57.548Z,1.83
2023-02-12T07:32:24.960Z,1.83
2023-02-12T07:34:51.925Z,1.70
2023-02-12T07:37:22.840Z,1.65
2023-02-12T07:39:50.252Z,1.67
2023-02-12T07:42:18.350Z,1.92
2023-02-12T07:44:49.703Z,1.75
2023-02-12T07:47:16.946Z,1.88
2023-02-12T07:49:43.959Z,2.03
2023-02-12T07:52:13.367Z,1.50
2023-02-12T07:54:40.404Z,1.90
2023-02-12T07:57:07.661Z,1.52
2023-02-12T07:59:34.591Z,1.50
2023-02-12T08:02:01.868Z,1.95
2023-02-12T08:04:28.841Z,2.28
2023-02-12T08:06:56.760Z,1.80
2023-02-12T08:09:26.763Z,1.90
2023-02-12T08:11:54.290Z,1.70
2023-02-12T08:14:22.349Z,1.80
2023-02-12T08:16:50.660Z,1.73
2023-02-12T08:19:22.437Z,1.83
2023-02-12T08:21:55.547Z,2.08
2023-02-12T08:24:23.823Z,1.92
2023-02-12T08:26:52.054Z,2.25
2023-02-12T08:29:24.772Z,1.80
2023-02-12T08:31:59.925Z,1.90
2023-02-12T08:34:30.203Z,1.60
2023-02-12T08:36:58.591Z,1.40
2023-02-12T08:39:28.811Z,1.73
2023-02-12T08:41:57.883Z,2.05
2023-02-12T08:44:25.028Z,1.70
2023-02-12T08:46:53.275Z,1.63
2023-02-12T08:49:22.903Z,1.63
2023-02-12T08:51:53.031Z,2.00
2023-02-12T08:54:25.823Z,1.90
2023-02-12T08:57:01.459Z,2.05
2023-02-12T08:59:29.033Z,2.25
2023-02-12T09:01:56.295Z,2.20
2023-02-12T09:04:25.970Z,2.30
2023-02-12T09:06:53.831Z,2.17
2023-02-12T09:09:21.288Z,2.00
2023-02-12T09:11:49.621Z,2.15
2023-02-12T09:14:18.922Z,2.40
2023-02-12T09:16:46.340Z,3.05
2023-02-12T09:19:14.264Z,3.40
2023-02-12T09:21:42.141Z,3.60
2023-02-12T09:24:09.889Z,4.05
2023-02-12T09:26:37.472Z,3.28
2023-02-12T09:29:04.804Z,3.50
2023-02-12T09:31:33.416Z,4.13
2023-02-12T09:34:03.416Z,3.95
2023-02-12T09:36:31.251Z,4.07
2023-02-12T09:38:59.536Z,3.90
2023-02-12T09:41:39.378Z,3.45
2023-02-12T09:44:30.916Z,3.67
2023-02-12T09:49:48.980Z,3.53
2023-02-12T09:52:26.848Z,3.42
2023-02-12T09:54:54.249Z,3.60
2023-02-12T09:57:29.509Z,3.38
2023-02-12T10:00:06.842Z,3.75
2023-02-12T10:02:37.300Z,3.50
2023-02-12T10:05:06.689Z,3.50
2023-02-12T10:07:45.214Z,3.70
2023-02-12T10:10:29.781Z,4.40
2023-02-12T10:13:13.685Z,3.90
2023-02-12T10:15:43.363Z,3.92
2023-02-12T10:18:39.375Z,3.80
2023-02-12T10:21:17.641Z,3.47
2023-02-12T10:24:00.710Z,3.70
2023-02-12T10:26:35.936Z,3.90
2023-02-12T10:29:34.284Z,4.15
2023-02-12T10:32:28.477Z,3.90
2023-02-12T10:34:57.277Z,3.70
2023-02-12T10:37:35.296Z,2.95
2023-02-12T10:40:15.240Z,3.60
2023-02-12T10:42:45.301Z,4.15
2023-02-12T10:45:15.325Z,3.80
2023-02-12T10:47:42.461Z,4.40
2023-02-12T10:50:23.295Z,4.35
2023-02-12T10:52:55.891Z,4.45
2023-02-12T10:55:35.186Z,3.97
2023-02-12T10:58:05.034Z,3.63
2023-02-12T11:00:35.227Z,4.10
2023-02-12T11:03:22.473Z,4.00
2023-02-12T11:05:50.067Z,4.20
2023-02-12T11:08:32.109Z,4.25
2023-02-12T11:11:31.199Z,4.57
2023-02-12T11:14:00.409Z,4.85
2023-02-12T11:16:46.686Z,4.70
2023-02-12T11:19:28.517Z,4.65
2023-02-12T11:22:14.596Z,4.38
2023-02-12T11:24:41.544Z,4.90
2023-02-12T11:27:26.498Z,4.88
2023-02-12T11:30:21.232Z,5.20
2023-02-12T11:32:49.527Z,4.70
2023-02-12T11:35:27.006Z,4.70
2023-02-12T11:37:57.745Z,5.68
2023-02-12T11:40:28.640Z,5.50
2023-02-12T11:42:59.183Z,7.10
2023-02-12T11:45:41.672Z,4.90
2023-02-12T11:48:29.420Z,4.63
2023-02-12T11:50:59.480Z,4.55
2023-02-12T11:53:35.988Z,4.80
2023-02-12T11:56:08.597Z,4.95
2023-02-12T11:58:36.064Z,5.57
2023-02-12T12:01:21.026Z,4.80
2023-02-12T12:03:57.622Z,4.80
2023-02-12T12:06:31.545Z,4.10
2023-02-12T12:09:24.119Z,4.82
2023-02-12T12:11:59.243Z,4.75
2023-02-12T12:15:01.335Z,4.88
2023-02-12T12:20:29.659Z,4.20
2023-02-12T12:23:21.890Z,4.30
2023-02-12T12:25:57.704Z,4.20
2023-02-12T12:28:31.607Z,4.75
2023-02-12T12:31:06.826Z,4.32
2023-02-12T12:33:40.968Z,4.20
2023-02-12T12:36:14.506Z,3.45
2023-02-12T12:38:41.509Z,4.63
2023-02-12T12:41:30.747Z,4.25
2023-02-12T12:44:13.745Z,4.22
2023-02-12T12:47:05.224Z,4.47
2023-02-12T12:49:50.597Z,4.07
2023-02-12T12:52:25.389Z,4.53
2023-02-12T12:55:19.196Z,4.35
2023-02-12T12:57:58.663Z,4.53
2023-02-12T13:00:39.408Z,4.47
2023-02-12T13:03:37.576Z,4.68
2023-02-12T13:06:22.846Z,4.35
2023-02-12T13:09:02.302Z,4.85
2023-02-12T13:11:44.191Z,5.00
2023-02-12T13:14:28.034Z,5.38
2023-02-12T13:17:10.681Z,4.68
2023-02-12T13:20:03.045Z,4.90
2023-02-12T13:22:35.242Z,5.57
2023-02-12T13:25:16.757Z,4.57
2023-02-12T13:27:46.436Z,4.22
2023-02-12T13:30:22.248Z,5.10
2023-02-12T13:33:12.309Z,5.82
2023-02-12T13:35:46.240Z,4.97
2023-02-12T13:38:23.135Z,4.72
2023-02-12T13:40:54.687Z,5.18
2023-02-12T13:43:27.304Z,4.93
2023-02-12T13:46:14.108Z,4.43
2023-02-12T13:48:58.901Z,4.00
2023-02-12T13:51:50.556Z,4.15
2023-02-12T13:54:36.323Z,4.20
2023-02-12T13:57:09.755Z,4.40
2023-02-12T13:59:36.587Z,4.22
2023-02-12T14:02:12.942Z,4.15
2023-02-12T14:04:55.497Z,5.25
2023-02-12T14:07:24.604Z,4.18
2023-02-12T14:09:51.516Z,4.38
2023-02-12T14:12:43.038Z,5.20
2023-02-12T14:15:26.137Z,5.80
2023-02-12T14:18:07.158Z,4.88
2023-02-12T14:20:36.603Z,5.20
2023-02-12T14:23:03.782Z,5.05
2023-02-12T14:25:38.814Z,4.78
2023-02-12T14:28:07.328Z,4.90
2023-02-12T14:30:39.180Z,4.70
2023-02-12T14:33:07.369Z,5.20
2023-02-12T14:35:44.342Z,4.88
2023-02-12T14:38:11.563Z,5.00
2023-02-12T14:40:42.221Z,4.97
2023-02-12T14:43:28.239Z,5.43
2023-02-12T14:45:57.319Z,4.93
2023-02-12T14:48:46.457Z,5.32
2023-02-12T14:51:33.319Z,5.20
2023-02-12T14:54:01.374Z,5.32
2023-02-12T14:56:28.516Z,5.80
2023-02-12T14:58:58.778Z,5.18
2023-02-12T15:01:35.269Z,6.63
2023-02-12T15:04:17.517Z,5.78
2023-02-12T15:06:53.637Z,5.70
2023-02-12T15:09:35.735Z,5.43
2023-02-12T15:12:27.333Z,5.93
2023-02-12T15:15:05.994Z,5.47
2023-02-12T15:17:37.973Z,6.45
2023-02-12T15:20:13.903Z,5.63
2023-02-12T15:22:41.264Z,7.35
2023-02-12T15:25:26.260Z,6.18
2023-02-12T15:28:00.395Z,7.28
2023-02-12T15:30:35.385Z,6.82
2023-02-12T15:33:08.089Z,6.82
2023-02-12T15:35:39.846Z,8.25
2023-02-12T15:40:54.092Z,7.63
2023-02-12T15:43:21.027Z,8.85
2023-02-12T15:45:52.798Z,8.88
2023-02-12T15:50:48.199Z,8.95
2023-02-12T15:53:16.538Z,8.73
2023-02-12T15:55:46.815Z,8.88
2023-02-12T15:58:24.943Z,9.07
2023-02-12T16:00:54.643Z,10.15
2023-02-12T16:03:23.670Z,9.35
2023-02-12T16:05:52.554Z,10.93
2023-02-12T16:08:22.563Z,10.63
2023-02-12T16:10:53.226Z,9.52
2023-02-12T16:13:35.472Z,10.55
2023-02-12T16:16:13.314Z,9.77
2023-02-12T16:18:41.963Z,10.65
2023-02-12T16:21:17.670Z,11.75
2023-02-12T16:23:46.338Z,11.35
2023-02-12T16:26:23.075Z,11.65
2023-02-12T16:28:53.395Z,11.02
2023-02-12T16:31:23.812Z,11.23
2023-02-12T16:33:54.010Z,11.32
2023-02-12T16:36:22.583Z,11.35
2023-02-12T16:38:50.846Z,11.65
2023-02-12T16:41:18.173Z,11.77
2023-02-12T16:43:46.683Z,12.50
2023-02-12T16:46:16.618Z,12.63
2023-02-12T16:48:49.759Z,12.82
2023-02-12T16:51:32.080Z,12.55
2023-02-12T16:54:01.503Z,12.38
2023-02-12T16:56:34.194Z,13.65
2023-02-12T16:59:02.148Z,13.60
2023-02-12T17:01:34.063Z,13.98
2023-02-12T17:04:04.737Z,14.07
2023-02-12T17:06:32.760Z,14.98
2023-02-12T17:09:00.482Z,15.18
2023-02-12T17:11:29.092Z,14.07
2023-02-12T17:13:57.045Z,12.75
2023-02-12T17:16:30.714Z,14.15
2023-02-12T17:18:59.261Z,14.43
2023-02-12T17:21:32.587Z,14.80
2023-02-12T17:23:59.636Z,16.50
2023-02-12T17:26:27.008Z,15.23
2023-02-12T17:28:53.925Z,15.27
2023-02-12T17:31:21.313Z,16.05
2023-02-12T17:33:48.462Z,14.52
2023-02-12T17:36:15.768Z,14.38
2023-02-12T17:38:42.825Z,15.65
2023-02-12T17:41:11.110Z,14.73
2023-02-12T17:43:38.238Z,15.65
2023-02-12T17:46:14.159Z,13.60
2023-02-12T17:48:41.249Z,13.02
2023-02-12T17:51:09.950Z,16.02
2023-02-12T17:53:36.921Z,14.63
2023-02-12T17:56:04.763Z,16.02
2023-02-12T17:58:31.711Z,14.98
2023-02-12T18:01:05.640Z,16.10
2023-02-12T18:03:32.939Z,16.98
2023-02-12T18:06:00.738Z,16.45
2023-02-12T18:08:28.148Z,15.50
2023-02-12T18:10:55.736Z,15.43
2023-02-12T18:13:23.463Z,15.80
2023-02-12T18:15:51.697Z,15.63
2023-02-12T18:18:18.957Z,14.48
2023-02-12T18:20:46.255Z,14.90
2023-02-12T18:23:13.228Z,13.85
2023-02-12T18:25:42.348Z,13.07
2023-02-12T18:28:10.522Z,13.57
2023-02-12T18:30:39.134Z,13.10
2023-02-12T18:33:06.305Z,13.77
2023-02-12T18:35:34.018Z,12.52
2023-02-12T18:38:00.940Z,13.52
2023-02-12T18:40:28.229Z,13.38
2023-02-12T18:42:55.246Z,13.60
2023-02-12T18:45:22.487Z,13.27
2023-02-12T18:47:49.328Z,14.02
2023-02-12T18:50:16.718Z,14.18
2023-02-12T18:52:43.674Z,14.27
2023-02-12T18:55:11.429Z,15.38
2023-02-12T18:57:38.711Z,15.85
2023-02-12T19:00:06.702Z,15.20
2023-02-12T19:02:33.832Z,14.55
2023-02-12T19:05:01.183Z,14.77
2023-02-12T19:07:28.132Z,14.70
2023-02-12T19:09:55.482Z,15.55
2023-02-12T19:12:22.632Z,14.80
2023-02-12T19:14:49.822Z,15.88
2023-02-12T19:17:16.721Z,16.17
2023-02-12T19:19:44.071Z,15.50
2023-02-12T19:22:11.057Z,15.65
2023-02-12T19:24:46.756Z,16.48
2023-02-12T19:27:14.186Z,15.75
2023-02-12T19:29:41.535Z,15.52
2023-02-12T19:32:08.679Z,15.80
2023-02-12T19:34:35.983Z,15.13
2023-02-12T19:37:02.958Z,15.75
2023-02-12T19:39:30.303Z,15.60
2023-02-12T19:41:57.244Z,16.00
2023-02-12T19:44:25.577Z,16.92
2023-02-12T19:46:53.516Z,17.38
2023-02-12T19:49:23.829Z,17.85
2023-02-12T19:51:51.689Z,16.13
2023-02-12T19:54:20.871Z,16.95
2023-02-12T19:56:48.439Z,18.02
2023-02-12T19:59:17.799Z,17.52
2023-02-12T20:01:45.987Z,18.08
2023-02-12T20:04:15.041Z,16.77
2023-02-12T20:06:43.503Z,17.63
2023-02-12T20:09:11.573Z,18.15
2023-02-12T20:11:39.299Z,18.20
2023-02-12T20:14:10.211Z,17.30
2023-02-12T20:16:39.123Z,17.83
2023-02-12T20:19:12.879Z,17.45
2023-02-12T20:21:41.034Z,16.60
2023-02-12T20:24:08.516Z,16.35
2023-02-12T20:26:36.140Z,17.75
2023-02-12T20:29:05.205Z,16.33
2023-02-12T20:31:36.284Z,16.48
2023-02-12T20:34:07.705Z,16.27
2023-02-12T20:36:37.013Z,15.95
2023-02-12T20:39:05.998Z,14.73
2023-02-12T20:41:34.868Z,15.52
2023-02-12T20:44:02.119Z,14.50
2023-02-12T20:46:29.205Z,14.10
2023-02-12T20:48:57.787Z,14.55
2023-02-12T20:51:27.264Z,16.10
2023-02-12T20:53:55.615Z,15.85
2023-02-12T20:56:31.831Z,15.25
2023-02-12T20:59:00.495Z,13.90
2023-02-12T21:01:36.293Z,15.80
2023-02-12T21:04:06.590Z,15.63
2023-02-12T21:06:34.845Z,15.15
2023-02-12T21:09:03.218Z,15.18
2023-02-12T21:11:30.321Z,14.80
2023-02-12T21:14:18.394Z,14.98
2023-02-12T21:16:46.251Z,15.57
2023-02-12T21:19:17.880Z,13.65
2023-02-12T21:21:45.532Z,14.63
2023-02-12T21:24:17.280Z,14.38
2023-02-12T21:26:44.444Z,15.23
2023-02-12T21:29:11.679Z,14.05
2023-02-12T21:31:44.590Z,16.38
2023-02-12T21:34:19.628Z,13.93
2023-02-12T21:36:48.325Z,14.65
2023-02-12T21:39:26.111Z,15.50
2023-02-12T21:41:55.870Z,15.73
2023-02-12T21:44:24.703Z,15.73
2023-02-12T21:46:52.409Z,16.67
2023-02-12T21:49:27.622Z,17.33
2023-02-12T21:51:57.994Z,17.48
2023-02-12T21:54:26.134Z,18.13
2023-02-12T21:56:53.097Z,19.15
2023-02-12T21:59:20.393Z,20.08
2023-02-12T22:01:50.973Z,18.80
2023-02-12T22:04:19.128Z,18.67
2023-02-12T22:06:48.331Z,19.35
2023-02-12T22:09:18.629Z,19.38
2023-02-12T22:11:45.663Z,20.98
2023-02-12T22:14:15.093Z,20.77
2023-02-12T22:16:42.455Z,21.75
2023-02-12T22:19:09.913Z,21.08
2023-02-12T22:21:40.241Z,19.90
2023-02-12T22:24:10.880Z,19.50
2023-02-12T22:26:38.046Z,21.95
2023-02-12T22:29:08.501Z,21.10
2023-02-12T22:31:37.478Z,22.30
2023-02-12T22:34:08.358Z,23.73
2023-02-12T22:36:37.092Z,23.45
2023-02-12T22:39:05.766Z,22.38
2023-02-12T22:41:33.526Z,24.30
2023-02-12T22:44:02.494Z,23.02
2023-02-12T22:46:29.526Z,23.63
2023-02-12T22:48:56.882Z,24.48
2023-02-12T22:51:26.903Z,22.15
2023-02-12T22:53:54.870Z,24.42
2023-02-12T22:56:23.130Z,23.17
2023-02-12T22:58:58.155Z,23.58
2023-02-12T23:01:26.351Z,20.80
2023-02-12T23:03:53.730Z,21.83
2023-02-12T23:06:27.770Z,22.50
2023-02-12T23:08:59.070Z,22.25
2023-02-12T23:11:28.242Z,23.02
2023-02-12T23:13:56.409Z,21.70
2023-02-12T23:16:23.850Z,21.05
2023-02-12T23:18:56.570Z,20.73
2023-02-12T23:21:24.469Z,20.38
2023-02-12T23:23:52.063Z,19.67
2023-02-12T23:26:19.227Z,19.00
2023-02-12T23:28:46.586Z,21.58
2023-02-12T23:31:13.891Z,18.80
2023-02-12T23:33:41.115Z,18.65
2023-02-12T23:36:08.316Z,20.15
2023-02-12T23:38:35.501Z,18.58
2023-02-12T23:41:02.524Z,19.10
2023-02-12T23:43:29.911Z,18.60
2023-02-12T23:45:56.859Z,18.73
2023-02-12T23:48:24.261Z,20.35
2023-02-12T23:50:51.106Z,19.15
2023-02-12T23:53:19.351Z,18.98
2023-02-12T23:55:51.138Z,18.95
2023-02-12T23:58:18.381Z,18.83
